Time;durP1;ratioP1;P1;durP2;ratioP2;P2;SDS_P1;SDS_P2;PMS_P1;PMS_P2;Temp;Humidity;BMP_temperature;BMP_pressure;BME280_temperature;BME280_humidity;BME280_pressure;Samples;Min_cycle;Max_cycle;Signal;HPM_P1;HPM_P2
2022/05/14 00:01:37;;;;;;;5.10;2.10;;;14.40;58.30;;;;;;5015737;28;20046;-83
2022/05/14 00:04:04;;;;;;;6.53;2.42;;;14.30;58.30;;;;;;5008395;28;20054;-82
2022/05/14 00:06:31;;;;;;;6.53;2.60;;;14.30;58.20;;;;;;5001491;28;20053;-83
2022/05/14 00:09:01;;;;;;;6.07;2.17;;;14.40;58.20;;;;;;5015591;28;20049;-83
2022/05/14 00:14:12;;;;;;;5.57;2.03;;;14.40;58.10;;;;;;4999351;28;20116;-83
2022/05/14 00:16:38;;;;;;;5.75;2.20;;;14.30;58.10;;;;;;5008732;28;20105;-82
2022/05/14 00:19:06;;;;;;;6.03;2.42;;;14.40;58.10;;;;;;4993876;28;20125;-83
2022/05/14 00:21:32;;;;;;;6.25;2.50;;;14.30;58.20;;;;;;4997379;28;20034;-83
2022/05/14 00:23:58;;;;;;;9.18;2.67;;;14.40;58.20;;;;;;4994688;28;20136;-83
2022/05/14 00:26:24;;;;;;;6.13;2.53;;;14.40;58.30;;;;;;4998674;28;20045;-83
2022/05/14 00:28:50;;;;;;;5.55;2.13;;;14.30;58.20;;;;;;5014263;28;20056;-83
2022/05/14 00:31:16;;;;;;;5.93;2.55;;;14.30;58.20;;;;;;4995946;28;20038;-82
2022/05/14 00:33:42;;;;;;;7.28;2.55;;;14.30;58.20;;;;;;5012616;28;20042;-83
2022/05/14 00:36:08;;;;;;;7.25;3.17;;;14.30;58.20;;;;;;5002185;28;20038;-83
2022/05/14 00:38:33;;;;;;;9.52;2.60;;;14.40;58.70;;;;;;4993162;28;20096;-83
2022/05/14 00:41:02;;;;;;;7.03;2.40;;;14.30;58.30;;;;;;4992969;28;20085;-83
2022/05/14 00:43:29;;;;;;;7.18;2.20;;;14.30;58.40;;;;;;4996236;28;20386;-83
2022/05/14 00:46:22;;;;;;;7.25;2.00;;;14.30;58.40;;;;;;4995414;28;20049;-83
2022/05/14 00:48:51;;;;;;;8.50;2.47;;;14.30;58.30;;;;;;4971342;28;20090;-83
2022/05/14 00:51:25;;;;;;;5.88;2.33;;;14.30;58.60;;;;;;4971713;28;20059;-83
2022/05/14 00:53:54;;;;;;;7.10;3.22;;;14.30;58.60;;;;;;4967053;28;20043;-83
2022/05/14 00:56:27;;;;;;;7.57;2.53;;;14.30;58.70;;;;;;4954771;28;20059;-82
2022/05/14 00:59:09;;;;;;;8.00;2.33;;;14.30;58.70;;;;;;4953479;28;20431;-83
2022/05/14 01:01:36;;;;;;;5.43;2.08;;;14.30;58.70;;;;;;4950470;28;20051;-82
2022/05/14 01:04:02;;;;;;;7.90;2.47;;;14.20;58.60;;;;;;4963058;28;20054;-83
2022/05/14 01:06:29;;;;;;;6.35;2.53;;;14.20;58.60;;;;;;4938719;28;20090;-82
2022/05/14 01:08:57;;;;;;;7.40;2.40;;;14.20;58.60;;;;;;4946089;29;20062;-83
2022/05/14 01:11:23;;;;;;;9.10;2.72;;;14.20;58.60;;;;;;4953481;28;20122;-83
2022/05/14 01:13:49;;;;;;;8.00;3.03;;;14.20;58.60;;;;;;4956268;28;20411;-82
2022/05/14 01:16:16;;;;;;;5.50;2.20;;;14.20;58.60;;;;;;4971667;28;20050;-83
2022/05/14 01:18:42;;;;;;;9.27;2.40;;;14.20;58.50;;;;;;4957060;28;20130;-83
2022/05/14 01:21:32;;;;;;;4.57;2.30;;;14.20;58.50;;;;;;4946694;29;20120;-83
2022/05/14 01:27:07;;;;;;;7.68;2.78;;;14.20;58.50;;;;;;5008419;28;20042;-82
2022/05/14 01:29:34;;;;;;;9.77;2.55;;;14.20;58.60;;;;;;4999946;28;20137;-83
2022/05/14 01:32:00;;;;;;;6.20;2.88;;;14.10;58.60;;;;;;5004721;28;20046;-83
2022/05/14 01:34:31;;;;;;;7.80;2.58;;;14.10;58.50;;;;;;4997400;28;20069;-83
2022/05/14 01:36:57;;;;;;;5.72;2.47;;;14.20;58.60;;;;;;5003411;28;20046;-82
2022/05/14 01:39:23;;;;;;;12.82;3.92;;;14.10;58.70;;;;;;5000596;28;20046;-82
2022/05/14 01:41:49;;;;;;;6.97;2.83;;;14.10;59.20;;;;;;5013398;28;20496;-82
2022/05/14 01:44:15;;;;;;;5.05;2.45;;;14.10;59.30;;;;;;5006305;28;20034;-82
2022/05/14 01:46:41;;;;;;;8.70;2.42;;;14.10;59.20;;;;;;5009100;28;20073;-83
2022/05/14 01:49:08;;;;;;;7.53;2.55;;;14.10;59.10;;;;;;5000316;28;20042;-83
2022/05/14 01:51:33;;;;;;;7.07;2.30;;;14.00;59.10;;;;;;4997195;28;20486;-83
2022/05/14 01:53:59;;;;;;;9.95;2.50;;;14.00;59.30;;;;;;4997714;28;20053;-83
2022/05/14 01:56:25;;;;;;;5.80;2.60;;;14.00;59.30;;;;;;4997479;28;20034;-83
2022/05/14 01:58:50;;;;;;;4.93;2.10;;;14.00;59.40;;;;;;5010481;28;20528;-83
2022/05/14 02:01:31;;;;;;;4.95;2.40;;;14.00;59.30;;;;;;5013583;28;20038;-83
2022/05/14 02:04:00;;;;;;;8.18;2.70;;;14.00;59.20;;;;;;5008313;28;20046;-82
2022/05/14 02:06:28;;;;;;;10.27;2.85;;;14.00;59.20;;;;;;5013762;28;20038;-83
2022/05/14 02:08:55;;;;;;;7.13;2.63;;;14.00;59.30;;;;;;5002901;28;20057;-83
2022/05/14 02:11:21;;;;;;;6.47;2.50;;;13.90;59.40;;;;;;5011602;28;20078;-83
2022/05/14 02:13:49;;;;;;;10.30;3.10;;;13.90;59.40;;;;;;4997399;28;20093;-83
2022/05/14 02:16:14;;;;;;;8.82;2.90;;;13.90;59.50;;;;;;4998200;28;20129;-84
2022/05/14 02:18:41;;;;;;;6.78;2.80;;;13.90;59.40;;;;;;5011382;28;20080;-83
2022/05/14 02:21:07;;;;;;;6.57;2.53;;;13.90;59.50;;;;;;5006197;28;20046;-83
2022/05/14 02:23:36;;;;;;;6.50;3.22;;;13.90;59.50;;;;;;5013957;28;20037;-83
2022/05/14 02:26:05;;;;;;;9.07;3.00;;;13.90;59.60;;;;;;5000067;28;20053;-83
2022/05/14 02:28:32;;;;;;;8.57;3.20;;;13.90;59.60;;;;;;4999369;28;20034;-83
2022/05/14 02:30:58;;;;;;;6.70;3.10;;;13.80;59.70;;;;;;4996448;28;20058;-83
2022/05/14 02:33:23;;;;;;;8.63;3.10;;;13.80;59.80;;;;;;4997668;28;20042;-83
2022/05/14 02:35:49;;;;;;;11.30;2.88;;;13.90;59.90;;;;;;4999027;28;20077;-83
2022/05/14 02:38:15;;;;;;;7.25;2.58;;;13.80;60.00;;;;;;5005293;28;20042;-83
2022/05/14 02:40:42;;;;;;;8.15;3.78;;;13.80;60.00;;;;;;5000432;28;20489;-83
2022/05/14 02:43:08;;;;;;;10.25;3.97;;;13.80;60.40;;;;;;5013551;28;20057;-83
2022/05/14 02:45:34;;;;;;;7.72;3.58;;;13.80;60.30;;;;;;5013802;28;20054;-83
2022/05/14 02:48:00;;;;;;;10.10;3.97;;;13.80;60.40;;;;;;5002260;28;20389;-84
2022/05/14 02:50:26;;;;;;;8.55;3.10;;;13.80;60.40;;;;;;5013087;28;20505;-84
2022/05/14 02:52:52;;;;;;;12.18;3.28;;;13.80;60.60;;;;;;5004267;28;20050;-83
2022/05/14 02:55:18;;;;;;;8.98;3.20;;;13.80;60.50;;;;;;5011551;28;20049;-83
2022/05/14 02:57:44;;;;;;;11.00;3.45;;;13.70;60.40;;;;;;4999001;28;20117;-84
2022/05/14 03:00:13;;;;;;;11.00;3.67;;;13.80;60.50;;;;;;4996588;28;20550;-83
2022/05/14 03:02:38;;;;;;;10.45;4.18;;;13.70;60.40;;;;;;4995040;28;20121;-83
2022/05/14 03:05:05;;;;;;;12.90;3.88;;;13.70;60.40;;;;;;4998514;28;20134;-84
2022/05/14 03:07:31;;;;;;;8.32;3.08;;;13.70;60.40;;;;;;4997741;28;20068;-84
2022/05/14 03:09:56;;;;;;;11.90;3.97;;;13.70;60.40;;;;;;5001837;28;20037;-84
2022/05/14 03:12:22;;;;;;;10.95;4.05;;;13.70;60.40;;;;;;5005552;28;20453;-83
2022/05/14 03:14:49;;;;;;;10.98;3.90;;;13.70;60.60;;;;;;4996785;28;20054;-84
2022/05/14 03:17:16;;;;;;;10.23;3.17;;;13.70;60.80;;;;;;4995653;28;20046;-83
2022/05/14 03:19:41;;;;;;;9.95;3.38;;;13.60;60.70;;;;;;5000193;28;20080;-83
2022/05/14 03:22:07;;;;;;;8.27;3.40;;;13.70;60.70;;;;;;5013322;28;20037;-84
2022/05/14 03:24:36;;;;;;;10.95;3.22;;;13.60;60.70;;;;;;5011373;28;20045;-84
2022/05/14 03:27:02;;;;;;;12.00;4.32;;;13.60;60.70;;;;;;5014721;28;20042;-84
2022/05/14 03:29:28;;;;;;;12.98;4.78;;;13.60;61.00;;;;;;5003301;28;20033;-84
2022/05/14 03:31:57;;;;;;;8.32;3.42;;;13.60;61.00;;;;;;4995655;28;20051;-84
2022/05/14 03:34:23;;;;;;;7.63;3.20;;;13.50;60.90;;;;;;4995689;28;20034;-83
2022/05/14 03:36:50;;;;;;;12.13;4.93;;;13.60;60.90;;;;;;4995115;28;20482;-84
2022/05/14 03:39:16;;;;;;;11.73;4.45;;;13.50;60.90;;;;;;4996077;28;20049;-84
2022/05/14 03:41:41;;;;;;;11.57;3.83;;;13.50;61.00;;;;;;4995049;28;20042;-84
2022/05/14 03:44:07;;;;;;;10.77;3.53;;;13.50;61.20;;;;;;4995430;28;20141;-84
2022/05/14 03:46:34;;;;;;;12.98;4.43;;;13.50;61.20;;;;;;5006242;28;20470;-84
2022/05/14 03:49:00;;;;;;;15.82;6.00;;;13.50;61.30;;;;;;4994755;28;20154;-84
2022/05/14 03:51:26;;;;;;;14.27;4.38;;;13.50;61.50;;;;;;5010572;28;20805;-84
2022/05/14 03:53:52;;;;;;;12.65;4.30;;;13.50;61.80;;;;;;5012915;28;20081;-84
2022/05/14 03:56:18;;;;;;;13.43;4.85;;;13.50;61.90;;;;;;5011219;28;20084;-84
2022/05/14 03:58:44;;;;;;;14.93;4.20;;;13.40;62.00;;;;;;5011682;28;20046;-84
2022/05/14 04:01:09;;;;;;;7.40;3.55;;;13.40;62.00;;;;;;5005995;28;20397;-83
2022/05/14 04:03:35;;;;;;;10.10;4.40;;;13.40;61.90;;;;;;5010960;28;20548;-84
2022/05/14 04:06:03;;;;;;;11.68;4.40;;;13.40;62.00;;;;;;5004224;28;20064;-84
2022/05/14 04:08:28;;;;;;;12.52;4.38;;;13.40;62.40;;;;;;5013414;28;20375;-84
2022/05/14 04:10:54;;;;;;;11.60;4.93;;;13.40;61.90;;;;;;5005228;28;20065;-84
2022/05/14 04:13:21;;;;;;;14.38;5.85;;;13.30;62.00;;;;;;5000791;28;20090;-84
2022/05/14 04:15:47;;;;;;;11.48;4.07;;;13.40;62.30;;;;;;5003329;28;20041;-84
2022/05/14 04:18:13;;;;;;;13.93;4.68;;;13.30;62.40;;;;;;5013324;28;20092;-85
2022/05/14 04:20:39;;;;;;;10.23;4.68;;;13.30;62.50;;;;;;5002497;28;20066;-85
2022/05/14 04:23:05;;;;;;;13.90;5.40;;;13.30;62.60;;;;;;4994610;28;20042;-84
2022/05/14 04:25:31;;;;;;;10.88;5.22;;;13.30;62.90;;;;;;4998981;28;20485;-84
2022/05/14 04:27:57;;;;;;;15.65;5.75;;;13.30;63.00;;;;;;5000898;28;20092;-84
2022/05/14 04:30:22;;;;;;;12.38;5.15;;;13.30;63.20;;;;;;4995445;28;20042;-84
2022/05/14 04:32:48;;;;;;;13.18;5.65;;;13.30;63.30;;;;;;4994684;28;20069;-84
2022/05/14 04:35:15;;;;;;;12.27;4.72;;;13.30;63.40;;;;;;4994970;28;20046;-83
2022/05/14 04:37:41;;;;;;;18.08;6.13;;;13.30;63.70;;;;;;5013816;28;20402;-84
2022/05/14 04:40:08;;;;;;;16.05;6.35;;;13.30;64.00;;;;;;5012094;28;20042;-84
2022/05/14 04:42:38;;;;;;;19.80;6.07;;;13.30;64.70;;;;;;4995188;28;20038;-84
2022/05/14 04:45:05;;;;;;;15.25;5.68;;;13.30;64.60;;;;;;4994665;28;20074;-85
2022/05/14 04:47:30;;;;;;;15.27;6.53;;;13.30;64.80;;;;;;5005044;28;20080;-83
2022/05/14 04:49:56;;;;;;;17.40;6.40;;;13.30;65.10;;;;;;5001514;28;20078;-82
2022/05/14 04:52:22;;;;;;;10.77;4.53;;;13.40;65.50;;;;;;4995279;28;20046;-82
2022/05/14 04:54:47;;;;;;;16.25;6.47;;;13.40;65.70;;;;;;4994243;28;20039;-83
2022/05/14 04:57:13;;;;;;;18.52;6.40;;;13.40;66.20;;;;;;5005476;28;20042;-82
2022/05/14 04:59:39;;;;;;;21.80;7.50;;;13.30;66.00;;;;;;5007879;28;20049;-83
2022/05/14 05:04:49;;;;;;;22.05;7.32;;;13.40;66.30;;;;;;5013891;28;20042;-83
2022/05/14 05:07:15;;;;;;;17.75;7.30;;;13.50;66.70;;;;;;4998747;28;20069;-83
2022/05/14 05:09:41;;;;;;;18.30;6.53;;;13.60;67.50;;;;;;5010672;28;20429;-83
2022/05/14 05:12:07;;;;;;;17.38;6.68;;;13.60;67.90;;;;;;5015035;28;20075;-83
2022/05/14 05:14:33;;;;;;;19.30;7.47;;;13.70;68.10;;;;;;5001869;28;20050;-84
2022/05/14 05:16:59;;;;;;;18.83;7.15;;;13.90;68.10;;;;;;5007411;28;20065;-84
2022/05/14 05:19:25;;;;;;;20.73;7.63;;;14.10;68.10;;;;;;5012319;28;20046;-83
2022/05/14 05:21:51;;;;;;;21.75;7.50;;;14.20;68.00;;;;;;5010446;28;20038;-84
2022/05/14 05:24:17;;;;;;;22.90;7.47;;;14.40;67.90;;;;;;5017861;28;20049;-85
2022/05/14 05:26:42;;;;;;;21.65;7.25;;;14.50;67.70;;;;;;5004616;28;20049;-84
2022/05/14 05:29:09;;;;;;;19.65;7.10;;;14.70;67.40;;;;;;4999017;28;20409;-84
2022/05/14 05:31:35;;;;;;;19.88;7.00;;;14.90;67.10;;;;;;5003135;28;20131;-84
2022/05/14 05:34:01;;;;;;;18.77;6.40;;;15.10;66.60;;;;;;5005326;28;20046;-84
2022/05/14 05:36:27;;;;;;;23.77;8.85;;;15.30;66.30;;;;;;5014056;28;20129;-84
2022/05/14 05:38:52;;;;;;;16.98;6.85;;;15.50;66.10;;;;;;5016178;28;20128;-85
2022/05/14 05:41:19;;;;;;;19.65;6.95;;;15.70;65.70;;;;;;5011416;28;20042;-85
2022/05/14 05:43:46;;;;;;;18.60;7.38;;;15.90;65.10;;;;;;5016778;28;20042;-86
2022/05/14 05:46:12;;;;;;;17.73;6.15;;;16.20;65.00;;;;;;5019775;28;20069;-85
2022/05/14 05:48:38;;;;;;;17.52;5.97;;;16.50;64.80;;;;;;5012013;28;20050;-85
2022/05/14 05:51:04;;;;;;;19.52;7.30;;;16.80;64.40;;;;;;5006541;28;20046;-86
2022/05/14 05:58:59;;;;;;;18.55;6.38;;;17.80;61.40;;;;;;5010209;28;20050;-86
2022/05/14 06:01:24;;;;;;;24.83;6.50;;;18.00;61.00;;;;;;5010579;28;20080;-86
2022/05/14 06:03:51;;;;;;;20.90;6.35;;;18.30;60.80;;;;;;5005626;28;20042;-86
2022/05/14 06:06:17;;;;;;;18.40;5.97;;;18.60;60.20;;;;;;5003890;28;20050;-85
2022/05/14 06:08:43;;;;;;;17.50;6.00;;;18.90;59.60;;;;;;5012860;28;20045;-86
2022/05/14 06:11:09;;;;;;;19.60;7.25;;;19.30;59.30;;;;;;5016499;28;20050;-87
2022/05/14 06:13:34;;;;;;;17.73;6.45;;;19.70;58.70;;;;;;5015286;28;20470;-87
2022/05/14 06:16:00;;;;;;;18.88;6.40;;;20.00;57.70;;;;;;5010223;28;20450;-88
2022/05/14 06:18:26;;;;;;;21.73;7.28;;;20.40;57.00;;;;;;5010216;28;20061;-87
2022/05/14 06:20:53;;;;;;;17.25;6.57;;;20.70;56.00;;;;;;5016305;28;20038;-87
2022/05/14 06:23:19;;;;;;;24.33;6.78;;;20.90;55.20;;;;;;5010789;28;20038;-87
2022/05/14 06:25:45;;;;;;;16.88;6.72;;;21.10;54.70;;;;;;4998148;28;20039;-86
2022/05/14 06:28:11;;;;;;;15.02;5.40;;;21.30;54.50;;;;;;5008958;28;20105;-88
2022/05/14 06:30:41;;;;;;;16.08;7.05;;;21.60;54.20;;;;;;5017419;28;20121;-87
2022/05/14 06:33:08;;;;;;;17.00;7.00;;;21.80;53.60;;;;;;5013653;28;20108;-87
2022/05/14 06:35:36;;;;;;;17.90;6.85;;;22.10;53.10;;;;;;5006491;28;20042;-87
2022/05/14 06:38:03;;;;;;;20.83;7.40;;;22.40;52.50;;;;;;5001552;28;20493;-92
2022/05/14 06:40:29;;;;;;;15.73;5.63;;;22.60;51.40;;;;;;4996121;28;20073;-86
2022/05/14 06:42:55;;;;;;;18.02;6.60;;;22.80;50.70;;;;;;5004971;28;20042;-87
2022/05/14 06:45:21;;;;;;;15.27;6.18;;;23.00;50.20;;;;;;4997830;28;20042;-88
2022/05/14 06:47:47;;;;;;;20.27;6.88;;;23.20;49.60;;;;;;4999550;28;20069;-86
2022/05/14 06:50:12;;;;;;;21.77;7.47;;;23.30;49.40;;;;;;4999659;28;20476;-86
2022/05/14 06:52:41;;;;;;;15.45;5.50;;;23.50;48.90;;;;;;4999399;28;20587;-94
2022/05/14 06:55:09;;;;;;;17.55;6.57;;;23.70;48.80;;;;;;5006212;28;20050;-91
2022/05/14 06:57:35;;;;;;;18.40;7.15;;;24.00;48.40;;;;;;5010952;28;20050;-88
2022/05/14 07:00:01;;;;;;;15.98;5.43;;;24.10;47.40;;;;;;4996724;28;20051;-93
2022/05/14 07:02:27;;;;;;;18.98;7.03;;;24.30;47.10;;;;;;4997558;28;20046;-92
2022/05/14 07:07:38;;;;;;;21.77;6.97;;;24.60;46.10;;;;;;5001969;28;20052;-85
2022/05/14 07:10:04;;;;;;;18.45;6.93;;;24.60;46.20;;;;;;5013733;28;20050;-78
2022/05/14 07:12:32;;;;;;;16.48;6.13;;;24.70;46.00;;;;;;5021237;28;20463;-77
2022/05/14 07:14:58;;;;;;;20.38;6.35;;;24.80;45.70;;;;;;5015489;28;20096;-78
2022/05/14 07:17:25;;;;;;;18.55;6.40;;;24.80;45.00;;;;;;5015343;28;20041;-77
2022/05/14 07:19:52;;;;;;;17.42;5.38;;;24.80;44.60;;;;;;4999248;28;20038;-77
2022/05/14 07:22:17;;;;;;;16.98;5.13;;;24.80;44.40;;;;;;4996818;28;20050;-77
2022/05/14 07:24:44;;;;;;;16.10;5.13;;;24.70;44.00;;;;;;5012187;28;20061;-78
2022/05/14 07:27:11;;;;;;;18.08;6.47;;;24.70;43.90;;;;;;5011447;28;20161;-77
2022/05/14 07:29:42;;;;;;;16.73;5.60;;;24.70;44.00;;;;;;5015247;28;20056;-78
2022/05/14 07:32:10;;;;;;;15.27;5.53;;;24.70;44.20;;;;;;5035046;28;20088;-77
2022/05/14 07:34:36;;;;;;;18.23;5.55;;;24.70;43.90;;;;;;4998604;28;20092;-78
2022/05/14 07:37:07;;;;;;;17.13;5.75;;;24.70;44.00;;;;;;4999408;28;20052;-77
2022/05/14 07:39:53;;;;;;;16.20;5.45;;;24.60;44.00;;;;;;5006627;28;20552;-78
2022/05/14 07:42:24;;;;;;;15.68;5.65;;;24.60;44.10;;;;;;5007742;28;20057;-77
2022/05/14 07:44:53;;;;;;;16.63;6.07;;;24.60;44.10;;;;;;5002196;28;20061;-78
2022/05/14 07:47:19;;;;;;;15.77;5.60;;;24.60;44.70;;;;;;5014009;28;20115;-78
2022/05/14 07:49:47;;;;;;;17.80;5.78;;;24.60;44.30;;;;;;5001817;28;20058;-79
2022/05/14 07:52:14;;;;;;;17.08;6.70;;;24.60;44.10;;;;;;4998454;28;20069;-77
2022/05/14 07:54:40;;;;;;;17.25;6.15;;;24.60;43.60;;;;;;4995577;28;20124;-78
2022/05/14 07:57:07;;;;;;;11.35;4.05;;;24.60;43.60;;;;;;4995838;28;20453;-78
2022/05/14 07:59:35;;;;;;;15.38;4.63;;;24.60;43.40;;;;;;4995965;28;20049;-77
2022/05/14 08:02:01;;;;;;;15.57;5.28;;;24.50;43.20;;;;;;5005649;28;20026;-77
2022/05/14 08:04:27;;;;;;;17.55;5.70;;;24.40;43.00;;;;;;5005415;28;20048;-78
2022/05/14 08:06:53;;;;;;;17.88;5.88;;;24.30;43.50;;;;;;4996018;28;20398;-77
2022/05/14 08:09:18;;;;;;;16.40;5.18;;;24.20;43.90;;;;;;4996206;28;20549;-77
2022/05/14 08:11:44;;;;;;;16.20;5.47;;;24.10;44.00;;;;;;4994352;28;20038;-77
2022/05/14 08:14:10;;;;;;;18.83;5.30;;;24.10;43.50;;;;;;4993521;28;20469;-78
2022/05/14 08:16:35;;;;;;;12.68;4.38;;;24.10;43.50;;;;;;4995870;28;20050;-77
2022/05/14 08:19:01;;;;;;;18.45;5.47;;;24.10;43.10;;;;;;5000426;28;20038;-77
2022/05/14 08:24:30;;;;;;;15.45;4.72;;;24.10;42.90;;;;;;5003676;28;20089;-77
2022/05/14 08:26:55;;;;;;;;;;;24.00;42.90;;;;;;5008173;28;20060;-78
2022/05/14 08:29:22;;;;;;;14.70;4.93;;;23.90;43.20;;;;;;5001230;28;19921;-77
2022/05/14 08:31:49;;;;;;;12.50;5.22;;;23.80;43.60;;;;;;5011005;28;20049;-82
2022/05/14 08:34:14;;;;;;;19.15;5.20;;;23.80;43.50;;;;;;5003103;28;20038;-83
2022/05/14 08:36:41;;;;;;;14.60;5.60;;;23.70;43.80;;;;;;4999489;28;20054;-84
2022/05/14 08:39:07;;;;;;;19.63;5.13;;;23.70;43.90;;;;;;5008030;28;20050;-83
2022/05/14 08:41:36;;;;;;;15.55;5.25;;;23.70;43.50;;;;;;5002919;28;20128;-82
2022/05/14 08:44:10;;;;;;;18.63;5.10;;;23.70;43.40;;;;;;5009385;28;20113;-84
2022/05/14 08:46:37;;;;;;;;;;;23.70;42.80;;;;;;5012937;28;20543;-84
2022/05/14 08:49:13;;;;;;;17.58;4.32;;;23.70;42.80;;;;;;5013898;28;19944;-82
2022/05/14 08:51:46;;;;;;;18.00;5.30;;;23.60;43.40;;;;;;5008729;28;20041;-83
2022/05/14 08:54:11;;;;;;;13.15;5.00;;;23.60;43.20;;;;;;5013949;28;20092;-82
2022/05/14 08:56:41;;;;;;;11.77;4.40;;;23.60;43.40;;;;;;5012505;28;20432;-82
2022/05/14 08:59:40;;;;;;;15.27;4.70;;;23.60;43.00;;;;;;5010811;28;20177;-82
2022/05/14 09:02:26;;;;;;;13.10;4.13;;;23.60;41.90;;;;;;4996105;28;20082;-84
2022/05/14 09:05:00;;;;;;;18.30;5.30;;;23.50;41.80;;;;;;4998582;28;20068;-82
2022/05/14 09:07:26;;;;;;;14.38;4.50;;;23.50;42.10;;;;;;5008342;28;20081;-80
2022/05/14 09:09:55;;;;;;;15.40;4.35;;;23.40;41.80;;;;;;4995693;28;20043;-80
2022/05/14 09:12:33;;;;;;;19.60;5.22;;;23.30;42.00;;;;;;4997014;28;20092;-83
2022/05/14 09:15:05;;;;;;;16.75;4.32;;;23.20;42.30;;;;;;4995670;28;20047;-81
2022/05/14 09:17:32;;;;;;;14.25;4.32;;;23.10;42.40;;;;;;5012586;28;20046;-81
2022/05/14 09:19:59;;;;;;;16.13;4.55;;;23.00;42.90;;;;;;5007748;28;20054;-80
2022/05/14 09:22:45;;;;;;;19.13;5.13;;;22.80;42.80;;;;;;5012570;28;20508;-81
2022/05/14 09:25:21;;;;;;;15.05;5.13;;;22.80;42.60;;;;;;5011042;28;20406;-81
2022/05/14 09:27:59;;;;;;;16.60;4.78;;;22.80;42.90;;;;;;5013534;28;20382;-81
2022/05/14 09:30:43;;;;;;;15.77;4.35;;;22.80;42.90;;;;;;5010079;28;20085;-80
2022/05/14 09:33:21;;;;;;;;;;;22.90;42.80;;;;;;4999592;28;20085;-81
2022/05/14 09:36:04;;;;;;;16.67;4.95;;;22.80;42.80;;;;;;4994028;28;19922;-80
2022/05/14 09:38:30;;;;;;;16.92;5.28;;;22.70;42.20;;;;;;4993909;28;20045;-80
2022/05/14 09:41:11;;;;;;;15.23;4.57;;;22.70;42.20;;;;;;4996070;28;20047;-81
2022/05/14 09:43:37;;;;;;;16.60;4.38;;;22.60;42.90;;;;;;4993929;28;20050;-81
2022/05/14 09:46:12;;;;;;;16.55;5.43;;;22.50;42.90;;;;;;5000284;28;20056;-81
2022/05/14 09:48:48;;;;;;;16.75;5.28;;;22.50;42.40;;;;;;5004602;28;20060;-81
2022/05/14 09:51:27;;;;;;;12.77;4.40;;;22.60;42.00;;;;;;5012948;28;20042;-80
2022/05/14 09:53:53;;;;;;;15.52;5.05;;;22.60;42.20;;;;;;5016294;28;20045;-81
2022/05/14 09:56:51;;;;;;;15.82;4.72;;;22.60;41.50;;;;;;5008744;28;20057;-80
2022/05/14 09:59:36;;;;;;;17.60;5.50;;;22.50;40.70;;;;;;4922614;29;20488;-80
2022/05/14 10:02:19;;;;;;;18.15;4.70;;;22.40;41.70;;;;;;4922885;29;20060;-80
2022/05/14 10:05:11;;;;;;;15.30;4.53;;;22.50;42.40;;;;;;4915125;29;20082;-80
2022/05/14 10:07:44;;;;;;;17.30;4.90;;;22.60;42.40;;;;;;4927014;29;20086;-80
2022/05/14 10:10:30;;;;;;;13.68;4.65;;;22.60;42.40;;;;;;4918998;29;20413;-81
2022/05/14 10:13:23;;;;;;;17.67;4.93;;;22.80;42.20;;;;;;4936136;29;20067;-79
2022/05/14 10:16:09;;;;;;;19.63;5.60;;;22.80;42.30;;;;;;4934469;29;20444;-80
2022/05/14 10:19:00;;;;;;;13.20;4.75;;;22.90;42.00;;;;;;4917897;29;20146;-80
2022/05/14 10:21:53;;;;;;;11.80;4.07;;;23.00;42.00;;;;;;4879899;29;20445;-80
2022/05/14 10:27:52;;;;;;;14.18;4.05;;;23.20;40.80;;;;;;4879536;29;20057;-78
2022/05/14 10:30:26;;;;;;;11.82;4.75;;;23.30;39.90;;;;;;4865818;29;20109;-79
2022/05/14 10:33:02;;;;;;;14.75;4.57;;;23.40;39.90;;;;;;4859299;29;20136;-79
2022/05/14 10:35:35;;;;;;;14.43;4.28;;;23.50;39.60;;;;;;4893981;29;20158;-79
2022/05/14 10:38:39;;;;;;;19.65;4.97;;;23.60;40.10;;;;;;4932047;28;20090;-78
2022/05/14 10:41:07;;;;;;;11.02;4.00;;;23.60;39.50;;;;;;4934244;29;20151;-78
2022/05/14 10:43:43;;;;;;;15.55;4.18;;;23.60;39.60;;;;;;4943209;29;20044;-78
2022/05/14 10:46:17;;;;;;;16.10;5.05;;;23.60;39.60;;;;;;4946702;29;20419;-79
2022/05/14 10:48:52;;;;;;;14.88;4.45;;;23.50;38.90;;;;;;4935497;29;20043;-79
2022/05/14 10:51:24;;;;;;;14.10;5.15;;;23.50;38.10;;;;;;4936366;29;20062;-79
2022/05/14 10:53:51;;;;;;;19.25;5.13;;;23.40;38.60;;;;;;4923500;29;20055;-79
2022/05/14 10:56:27;;;;;;;14.50;4.10;;;23.30;38.70;;;;;;4953868;29;20078;-79
2022/05/14 10:59:06;;;;;;;14.13;4.35;;;23.30;38.80;;;;;;4981712;28;20096;-77
2022/05/14 11:01:59;;;;;;;10.35;3.60;;;23.20;38.80;;;;;;5003721;28;20046;-80
2022/05/14 11:04:46;;;;;;;16.02;4.35;;;23.20;38.80;;;;;;5011012;28;20040;-80
2022/05/14 11:07:32;;;;;;;12.18;4.43;;;23.30;38.70;;;;;;4998135;28;20046;-80
2022/05/14 11:10:12;;;;;;;14.20;5.03;;;23.30;38.40;;;;;;5004229;28;20049;-80
2022/05/14 11:12:39;;;;;;;15.07;4.20;;;23.40;38.30;;;;;;5007900;28;20525;-80
2022/05/14 11:15:23;;;;;;;16.40;4.03;;;23.40;38.50;;;;;;5008556;28;20081;-80
2022/05/14 11:17:49;;;;;;;15.50;5.13;;;23.40;39.30;;;;;;4996457;28;20363;-80
2022/05/14 11:20:18;;;;;;;12.43;4.18;;;23.50;39.50;;;;;;5003624;28;20501;-80
2022/05/14 11:22:52;;;;;;;15.00;3.85;;;23.60;39.70;;;;;;5010569;28;20042;-80
2022/05/14 11:25:20;;;;;;;13.73;4.53;;;23.70;38.90;;;;;;5006952;28;20046;-80
2022/05/14 11:27:58;;;;;;;14.52;4.18;;;23.80;38.80;;;;;;5005680;28;20050;-80
2022/05/14 11:30:51;;;;;;;15.20;4.70;;;23.90;39.50;;;;;;4997704;28;20038;-80
2022/05/14 11:33:26;;;;;;;17.30;4.72;;;24.00;39.50;;;;;;5007152;28;20172;-80
2022/05/14 11:36:15;;;;;;;12.82;4.00;;;24.00;39.00;;;;;;5008054;28;20049;-79
2022/05/14 11:38:45;;;;;;;10.98;4.10;;;24.10;39.30;;;;;;5007753;28;20057;-80
2022/05/14 11:41:14;;;;;;;13.90;4.88;;;24.20;39.00;;;;;;5013983;28;20126;-80
2022/05/14 11:43:43;;;;;;;13.65;4.35;;;24.30;38.90;;;;;;5007876;28;20117;-81
2022/05/14 11:46:21;;;;;;;13.63;4.47;;;24.40;38.40;;;;;;5004020;28;20055;-81
2022/05/14 11:49:04;;;;;;;13.27;4.70;;;24.40;38.10;;;;;;4993614;28;20561;-81
2022/05/14 11:51:38;;;;;;;14.40;4.47;;;24.50;38.20;;;;;;4993991;28;20046;-81
2022/05/14 11:54:20;;;;;;;16.65;5.22;;;24.50;37.30;;;;;;5008751;28;20046;-80
2022/05/14 11:56:59;;;;;;;15.25;4.63;;;24.60;37.20;;;;;;5003911;28;20132;-80
2022/05/14 11:59:41;;;;;;;13.77;3.85;;;24.60;36.50;;;;;;4997061;28;20475;-80
2022/05/14 12:02:19;;;;;;;14.20;4.28;;;24.60;35.40;;;;;;5003934;28;20049;-80
2022/05/14 12:04:49;;;;;;;10.32;3.70;;;24.60;36.00;;;;;;5007245;28;20034;-81
2022/05/14 12:07:34;;;;;;;14.75;4.40;;;24.60;36.00;;;;;;5012957;28;20500;-80
2022/05/14 12:10:23;;;;;;;12.73;4.43;;;24.70;35.90;;;;;;5013181;28;20041;-80
2022/05/14 12:12:57;;;;;;;12.75;3.90;;;24.60;35.30;;;;;;5006151;28;20046;-80
2022/05/14 12:15:24;;;;;;;13.23;3.65;;;24.60;35.50;;;;;;5003094;28;20050;-80
2022/05/14 12:17:54;;;;;;;15.55;5.18;;;24.60;35.80;;;;;;5009558;28;20129;-81
2022/05/14 12:20:29;;;;;;;12.27;4.32;;;24.60;35.50;;;;;;4994587;28;20501;-81
2022/05/14 12:23:06;;;;;;;13.13;4.80;;;24.60;36.00;;;;;;4997063;28;20046;-80
2022/05/14 12:25:48;;;;;;;13.10;4.75;;;24.60;36.10;;;;;;5000560;28;20054;-81
2022/05/14 12:28:26;;;;;;;14.32;4.80;;;24.70;35.80;;;;;;4994381;28;20050;-81
2022/05/14 12:33:55;;;;;;;13.10;4.00;;;24.70;35.80;;;;;;4997964;28;20050;-81
2022/05/14 12:36:21;;;;;;;11.13;3.97;;;24.60;35.90;;;;;;5007815;28;20084;-81
2022/05/14 12:38:47;;;;;;;15.50;4.68;;;24.70;35.60;;;;;;5010233;28;20045;-81
2022/05/14 12:41:31;;;;;;;16.17;4.72;;;24.70;35.30;;;;;;5012765;28;20057;-80
2022/05/14 12:44:03;;;;;;;12.43;4.25;;;24.60;35.50;;;;;;5009832;28;20489;-80
2022/05/14 12:46:29;;;;;;;11.80;3.90;;;24.60;35.10;;;;;;5008947;28;20401;-80
2022/05/14 12:48:57;;;;;;;12.40;4.25;;;24.70;35.00;;;;;;5003195;28;20051;-80
2022/05/14 12:51:24;;;;;;;13.90;4.50;;;24.60;34.60;;;;;;4999761;28;20489;-80
2022/05/14 12:53:52;;;;;;;11.65;4.25;;;24.70;34.20;;;;;;5006290;28;20078;-80
2022/05/14 12:56:20;;;;;;;13.70;4.55;;;24.60;34.50;;;;;;4999212;28;20054;-80
2022/05/14 12:58:46;;;;;;;12.77;4.22;;;24.70;34.80;;;;;;4997242;28;20045;-80
2022/05/14 13:01:14;;;;;;;11.25;3.92;;;24.60;34.70;;;;;;5010102;28;20113;-80
2022/05/14 13:03:44;;;;;;;14.73;4.47;;;24.70;34.90;;;;;;5005673;28;20509;-79
2022/05/14 13:06:16;;;;;;;11.05;3.67;;;24.70;34.80;;;;;;5011476;28;20493;-80
2022/05/14 13:08:44;;;;;;;15.73;4.30;;;24.70;34.70;;;;;;4997954;28;20058;-80
2022/05/14 13:11:15;;;;;;;14.70;4.28;;;24.70;34.70;;;;;;5004784;28;20379;-80
2022/05/14 13:13:46;;;;;;;14.15;3.90;;;24.80;34.70;;;;;;5008597;28;20182;-79
2022/05/14 13:16:16;;;;;;;13.15;3.97;;;24.80;34.80;;;;;;5002758;28;20057;-80
2022/05/14 13:18:47;;;;;;;14.88;4.85;;;24.90;34.70;;;;;;4996364;28;20046;-80
2022/05/14 13:21:20;;;;;;;11.38;4.00;;;24.90;34.70;;;;;;5013322;28;20046;-80